createdAt,value
2023-01-22T00:02:24.125Z,99484.88
2023-01-22T00:05:29.250Z,99490.13
2023-01-22T00:08:33.537Z,99490.13
2023-01-22T00:11:37.200Z,99493.00
2023-01-22T00:14:42.620Z,99517.97
2023-01-22T00:17:46.346Z,99514.69
2023-01-22T00:20:52.685Z,99511.34
2023-01-22T00:23:56.297Z,99513.59
2023-01-22T00:26:59.948Z,99512.47
2023-01-22T00:30:03.616Z,99509.44
2023-01-22T00:33:08.153Z,99516.03
2023-01-22T00:36:15.853Z,99519.63
2023-01-22T00:39:19.557Z,99516.38
2023-01-22T00:42:23.761Z,99515.59
2023-01-22T00:45:27.291Z,99516.97
2023-01-22T00:48:30.836Z,99510.59
2023-01-22T00:51:36.963Z,99528.22
2023-01-22T00:54:40.630Z,99531.19
2023-01-22T00:57:44.332Z,99545.84
2023-01-22T01:00:47.967Z,99540.03
2023-01-22T01:03:51.648Z,99539.44
2023-01-22T01:06:56.742Z,99546.56
2023-01-22T01:10:00.253Z,99555.44
2023-01-22T01:13:04.580Z,99557.06
2023-01-22T01:16:09.840Z,99568.84
2023-01-22T01:19:14.193Z,99580.09
2023-01-22T01:22:19.134Z,99591.91
2023-01-22T01:25:22.601Z,99595.75
2023-01-22T01:28:26.201Z,99599.84
2023-01-22T01:31:29.993Z,99607.66
2023-01-22T01:34:33.667Z,99603.81
2023-01-22T01:37:40.559Z,99604.41
2023-01-22T01:40:44.863Z,99613.59
2023-01-22T01:43:48.962Z,99613.03
2023-01-22T01:46:55.868Z,99594.13
2023-01-22T01:49:59.412Z,99595.91
2023-01-22T01:53:05.282Z,99589.44
2023-01-22T01:56:14.072Z,99590.81
2023-01-22T01:59:21.309Z,99582.69
2023-01-22T02:02:26.546Z,99584.03
2023-01-22T02:05:38.996Z,99588.47
2023-01-22T02:08:48.566Z,99581.31
2023-01-22T02:11:53.478Z,99574.59
2023-01-22T02:14:57.394Z,99574.00
2023-01-22T02:18:00.990Z,99566.31
2023-01-22T02:21:21.460Z,99567.75
2023-01-22T02:24:25.560Z,99567.97
2023-01-22T02:27:29.344Z,99577.19
2023-01-22T02:30:32.889Z,99569.41
2023-01-22T02:33:36.482Z,99574.88
2023-01-22T02:36:41.927Z,99572.72
2023-01-22T02:39:45.577Z,99583.25
2023-01-22T02:42:49.213Z,99585.53
2023-01-22T02:45:52.947Z,99595.13
2023-01-22T02:48:56.814Z,99603.09
2023-01-22T02:52:01.918Z,99598.78
2023-01-22T02:55:07.831Z,99609.94
2023-01-22T02:58:11.377Z,99607.47
2023-01-22T03:01:20.712Z,99599.59
2023-01-22T03:04:27.434Z,99591.78
2023-01-22T03:07:42.326Z,99601.09
2023-01-22T03:10:46.592Z,99611.94
2023-01-22T03:14:07.589Z,99610.09
2023-01-22T03:17:28.853Z,99606.16
2023-01-22T03:20:49.907Z,99608.41
2023-01-22T03:23:56.818Z,99602.03
2023-01-22T03:27:00.424Z,99610.66
2023-01-22T03:30:08.543Z,99615.50
2023-01-22T03:33:12.211Z,99613.06
2023-01-22T03:36:17.082Z,99602.28
2023-01-22T03:39:27.323Z,99595.63
2023-01-22T03:42:30.957Z,99593.81
2023-01-22T03:45:34.938Z,99600.84
2023-01-22T03:48:40.856Z,99614.88
2023-01-22T03:51:45.762Z,99622.34
2023-01-22T03:54:50.831Z,99623.97
2023-01-22T03:57:54.499Z,99628.09
2023-01-22T04:00:58.887Z,99630.53
2023-01-22T04:04:04.989Z,99632.03
2023-01-22T04:07:09.424Z,99635.75
2023-01-22T04:10:14.650Z,99634.50
2023-01-22T04:13:18.378Z,99638.25
2023-01-22T04:16:24.526Z,99650.03
2023-01-22T04:20:03.266Z,99658.38
2023-01-22T04:23:33.089Z,99672.69
2023-01-22T04:26:39.961Z,99675.38
2023-01-22T04:29:43.746Z,99677.88
2023-01-22T04:32:47.401Z,99674.91
2023-01-22T04:36:07.424Z,99691.81
2023-01-22T04:39:11.038Z,99695.25
2023-01-22T04:42:16.893Z,99699.81
2023-01-22T04:45:20.459Z,99707.47
2023-01-22T04:48:24.157Z,99710.91
2023-01-22T04:51:27.961Z,99709.41
2023-01-22T04:54:31.606Z,99708.59
2023-01-22T04:57:36.749Z,99718.72
2023-01-22T05:00:40.404Z,99726.69
2023-01-22T05:03:45.196Z,99717.91
2023-01-22T05:06:48.809Z,99730.53
2023-01-22T05:09:53.209Z,99740.84
2023-01-22T05:12:58.170Z,99741.34
2023-01-22T05:16:02.693Z,99750.56
2023-01-22T05:19:06.649Z,99756.06
2023-01-22T05:22:10.360Z,99760.31
2023-01-22T05:25:14.548Z,99750.59
2023-01-22T05:28:19.753Z,99751.41
2023-01-22T05:31:39.439Z,99750.16
2023-01-22T05:34:47.757Z,99755.13
2023-01-22T05:37:51.339Z,99768.69
2023-01-22T05:40:56.426Z,99779.00
2023-01-22T05:44:02.654Z,99793.69
2023-01-22T05:47:06.591Z,99791.34
2023-01-22T05:50:23.492Z,99800.00
2023-01-22T05:53:38.146Z,99798.91
2023-01-22T05:56:41.728Z,99808.25
2023-01-22T05:59:46.696Z,99799.19
2023-01-22T06:02:57.647Z,99780.22
2023-01-22T06:06:01.951Z,99776.81
2023-01-22T06:09:05.671Z,99783.81
2023-01-22T06:12:13.381Z,99818.97
2023-01-22T06:15:18.478Z,99827.47
2023-01-22T06:18:29.435Z,99809.63
2023-01-22T06:21:33.945Z,99822.56
2023-01-22T06:24:37.945Z,99834.63
2023-01-22T06:27:43.467Z,99834.09
2023-01-22T06:30:48.778Z,99842.59
2023-01-22T06:33:54.481Z,99853.31
2023-01-22T06:36:58.302Z,99860.31
2023-01-22T06:40:04.510Z,99861.97
2023-01-22T06:43:17.981Z,99873.63
2023-01-22T06:46:27.711Z,99875.84
2023-01-22T06:49:37.676Z,99882.56
2023-01-22T06:52:41.407Z,99879.00
2023-01-22T06:55:45.334Z,99874.47
2023-01-22T06:58:48.938Z,99876.66
2023-01-22T07:01:54.215Z,99883.53
2023-01-22T07:04:57.800Z,99876.66
2023-01-22T07:08:01.395Z,99878.84
2023-01-22T07:11:07.770Z,99880.91
2023-01-22T07:14:11.511Z,99878.28
2023-01-22T07:17:16.748Z,99897.00
2023-01-22T07:20:20.559Z,99895.47
2023-01-22T07:23:24.352Z,99893.00
2023-01-22T07:26:27.925Z,99891.75
2023-01-22T07:29:31.368Z,99897.00
2023-01-22T07:32:37.207Z,99902.91
2023-01-22T07:35:41.331Z,99908.00
2023-01-22T07:38:45.087Z,99915.38
2023-01-22T07:41:48.831Z,99918.72
2023-01-22T07:44:54.629Z,99916.75
2023-01-22T07:48:01.257Z,99923.94
2023-01-22T07:51:07.548Z,99923.66
2023-01-22T07:54:11.330Z,99933.00
2023-01-22T07:57:16.901Z,99926.97
2023-01-22T08:00:21.291Z,99936.59
2023-01-22T08:03:26.569Z,99943.44
2023-01-22T08:06:30.261Z,99957.34
2023-01-22T08:09:34.210Z,99960.25
2023-01-22T08:12:41.548Z,99959.41
2023-01-22T08:15:45.559Z,99956.69
2023-01-22T08:18:50.857Z,99960.78
2023-01-22T08:21:54.473Z,99961.19
2023-01-22T08:24:58.221Z,99966.97
2023-01-22T08:28:05.199Z,99968.78
2023-01-22T08:31:16.491Z,99974.53
2023-01-22T08:34:28.182Z,99968.75
2023-01-22T08:37:31.935Z,99964.06
2023-01-22T08:40:37.792Z,99970.81
2023-01-22T08:43:41.750Z,99994.19
2023-01-22T08:46:45.550Z,99984.41
2023-01-22T08:49:50.801Z,99988.66
2023-01-22T08:52:54.581Z,99985.47
2023-01-22T08:55:59.284Z,99991.25
2023-01-22T08:59:06.859Z,99988.22
2023-01-22T09:02:13.319Z,99992.19
2023-01-22T09:05:18.745Z,100001.44
2023-01-22T09:08:22.458Z,99990.72
2023-01-22T09:11:26.215Z,99987.66
2023-01-22T09:14:29.785Z,99986.56
2023-01-22T09:17:33.621Z,99975.47
2023-01-22T09:20:38.824Z,99967.72
2023-01-22T09:23:42.552Z,99963.66
2023-01-22T09:26:46.390Z,99967.13
2023-01-22T09:29:50.084Z,99975.19
2023-01-22T09:32:53.891Z,99975.53
2023-01-22T09:36:08.287Z,99978.28
2023-01-22T09:39:12.094Z,99981.44
2023-01-22T09:42:20.380Z,99974.09
2023-01-22T09:45:28.113Z,99969.97
2023-01-22T09:48:38.131Z,99959.13
2023-01-22T09:51:45.722Z,99958.47
2023-01-22T09:54:49.471Z,99955.47
2023-01-22T09:57:56.033Z,99959.28
2023-01-22T10:01:04.667Z,99959.63
2023-01-22T10:04:23.156Z,99957.88
2023-01-22T10:07:33.671Z,99961.91
2023-01-22T10:10:38.166Z,99956.03
2023-01-22T10:13:42.090Z,99956.16
2023-01-22T10:16:46.727Z,99950.97
2023-01-22T10:19:53.876Z,99950.38
2023-01-22T10:23:04.246Z,99951.78
2023-01-22T10:26:15.811Z,99955.75
2023-01-22T10:29:25.680Z,99959.41
2023-01-22T10:32:30.920Z,99951.69
2023-01-22T10:35:44.315Z,99954.00
2023-01-22T10:38:49.561Z,99954.88
2023-01-22T10:42:02.883Z,99962.09
2023-01-22T10:45:13.422Z,99950.06
2023-01-22T10:48:18.670Z,99952.81
2023-01-22T10:51:27.674Z,99953.47
2023-01-22T10:54:35.483Z,99947.16
2023-01-22T10:57:40.131Z,99942.56
2023-01-22T11:00:51.938Z,99943.78
2023-01-22T11:03:56.300Z,99937.78
2023-01-22T11:07:06.021Z,99938.03
2023-01-22T11:10:20.757Z,99935.63
2023-01-22T11:13:29.143Z,99936.94
2023-01-22T11:16:37.567Z,99944.53
2023-01-22T11:19:47.142Z,99945.97
2023-01-22T11:23:07.344Z,99944.94
2023-01-22T11:26:23.251Z,99945.59
2023-01-22T11:29:47.232Z,99946.19
2023-01-22T11:33:01.268Z,99951.03
2023-01-22T11:36:11.371Z,99952.78
2023-01-22T11:39:35.723Z,99955.19
2023-01-22T11:42:55.761Z,99953.09
2023-01-22T11:46:25.800Z,99953.00
2023-01-22T11:49:42.393Z,99951.94
2023-01-22T11:52:52.600Z,99954.13
2023-01-22T11:56:21.480Z,99954.78
2023-01-22T11:59:54.891Z,99947.75
2023-01-22T12:03:45.569Z,99949.63
2023-01-22T12:07:18.871Z,99953.09
2023-01-22T12:10:47.952Z,99954.97
2023-01-22T12:14:21.996Z,99962.59
2023-01-22T12:17:42.820Z,99971.91
2023-01-22T12:21:00.089Z,99971.84
2023-01-22T12:24:09.581Z,99968.78
2023-01-22T12:27:19.897Z,99968.94
2023-01-22T12:30:28.834Z,99974.66
2023-01-22T12:33:41.412Z,99980.94
2023-01-22T12:36:46.641Z,99979.28
2023-01-22T12:39:59.801Z,99974.34
2023-01-22T12:43:04.657Z,99982.03
2023-01-22T12:46:17.258Z,99979.63
2023-01-22T12:49:22.414Z,99979.72
2023-01-22T12:52:32.191Z,99977.56
2023-01-22T12:55:38.352Z,99985.06
2023-01-22T12:58:44.041Z,99987.50
2023-01-22T13:01:48.014Z,99994.19
2023-01-22T13:04:53.781Z,99994.25
2023-01-22T13:08:04.516Z,100001.44
2023-01-22T13:11:10.679Z,100002.50
2023-01-22T13:14:22.761Z,100002.34
2023-01-22T13:17:31.191Z,99991.03
2023-01-22T13:20:39.272Z,99998.00
2023-01-22T13:23:45.290Z,100000.91
2023-01-22T13:26:54.763Z,100006.00
2023-01-22T13:30:09.581Z,100013.91
2023-01-22T13:33:15.432Z,100024.41
2023-01-22T13:36:20.680Z,100027.47
2023-01-22T13:39:28.385Z,100024.63
2023-01-22T13:42:32.811Z,100021.00
2023-01-22T13:45:36.631Z,100028.88
2023-01-22T13:48:40.401Z,100027.63
2023-01-22T13:51:45.712Z,100033.91
2023-01-22T13:54:55.864Z,100037.66
2023-01-22T13:58:01.872Z,100026.66
2023-01-22T14:01:05.723Z,100030.22
2023-01-22T14:04:37.280Z,100037.44
2023-01-22T14:07:42.613Z,100045.53
2023-01-22T14:10:46.292Z,100048.00
2023-01-22T14:13:52.311Z,100053.22
2023-01-22T14:16:56.111Z,100044.69
2023-01-22T14:20:00.181Z,100053.81
2023-01-22T14:23:05.420Z,100050.19
2023-01-22T14:26:10.508Z,100050.72
2023-01-22T14:29:14.151Z,100058.81
2023-01-22T14:32:17.959Z,100060.00
2023-01-22T14:35:26.840Z,100061.34
2023-01-22T14:38:32.052Z,100051.13
2023-01-22T14:41:35.940Z,100055.06
2023-01-22T14:44:39.642Z,100045.34
2023-01-22T14:47:43.374Z,100044.28
2023-01-22T14:50:47.311Z,100048.75
2023-01-22T14:53:52.421Z,100051.34
2023-01-22T14:56:56.641Z,100049.47
2023-01-22T15:00:02.005Z,100052.22
2023-01-22T15:03:06.625Z,100054.53
2023-01-22T15:06:10.782Z,100057.56
2023-01-22T15:09:16.169Z,100059.03
2023-01-22T15:12:20.001Z,100065.31
2023-01-22T15:15:27.244Z,100066.13
2023-01-22T15:18:31.101Z,100065.13
2023-01-22T15:21:34.791Z,100069.84
2023-01-22T15:24:40.261Z,100070.66
2023-01-22T15:27:44.780Z,100077.56
2023-01-22T15:30:50.999Z,100087.75
2023-01-22T15:33:55.053Z,100082.25
2023-01-22T15:36:58.922Z,100088.00
2023-01-22T15:40:04.116Z,100095.88
2023-01-22T15:43:08.025Z,100093.31
2023-01-22T15:46:11.756Z,100080.47
2023-01-22T15:49:15.476Z,100090.91
2023-01-22T15:52:19.253Z,100093.56
2023-01-22T15:55:24.412Z,100103.09
2023-01-22T15:58:28.100Z,100096.84
2023-01-22T16:01:32.362Z,100102.81
2023-01-22T16:04:36.194Z,100106.78
2023-01-22T16:07:39.915Z,100102.91
2023-01-22T16:10:45.025Z,100107.97
2023-01-22T16:13:49.420Z,100102.91
2023-01-22T16:16:53.234Z,100108.13
2023-01-22T16:19:56.938Z,100095.44
2023-01-22T16:23:00.760Z,100113.38
2023-01-22T16:26:09.663Z,100108.22
2023-01-22T16:29:13.530Z,100116.50
2023-01-22T16:32:17.406Z,100122.00
2023-01-22T16:35:21.131Z,100129.72
2023-01-22T16:38:24.805Z,100130.25
2023-01-22T16:41:31.351Z,100137.69
2023-01-22T16:44:34.907Z,100135.06
2023-01-22T16:47:39.066Z,100136.75
2023-01-22T16:50:42.822Z,100146.22
2023-01-22T16:53:47.102Z,100146.22
2023-01-22T16:56:52.825Z,100147.75
2023-01-22T16:59:56.553Z,100152.44
2023-01-22T17:03:00.478Z,100148.00
2023-01-22T17:06:04.637Z,100147.75
2023-01-22T17:09:09.044Z,100138.78
2023-01-22T17:12:14.551Z,100145.25
2023-01-22T17:15:19.572Z,100146.53
2023-01-22T17:18:23.460Z,100153.00
2023-01-22T17:21:28.802Z,100152.44
2023-01-22T17:24:33.041Z,100158.91
2023-01-22T17:27:39.925Z,100164.13
2023-01-22T17:30:43.739Z,100166.56
2023-01-22T17:33:48.040Z,100171.34
2023-01-22T17:36:51.882Z,100183.47
2023-01-22T17:39:55.651Z,100181.81
2023-01-22T17:43:00.882Z,100175.78
2023-01-22T17:46:09.010Z,100181.03
2023-01-22T17:49:12.866Z,100175.97
2023-01-22T17:52:18.008Z,100187.53
2023-01-22T17:55:21.854Z,100178.03
2023-01-22T17:58:27.070Z,100184.75
2023-01-22T18:01:33.159Z,100188.75
2023-01-22T18:04:37.474Z,100197.84
2023-01-22T18:07:41.091Z,100197.84
2023-01-22T18:10:44.759Z,100189.03
2023-01-22T18:13:50.101Z,100189.72
2023-01-22T18:16:53.851Z,100189.88
2023-01-22T18:19:57.530Z,100194.66
2023-01-22T18:23:01.340Z,100200.72
2023-01-22T18:26:06.826Z,100200.81
2023-01-22T18:29:12.900Z,100198.75
2023-01-22T18:32:16.631Z,100205.78
2023-01-22T18:35:20.604Z,100210.91
2023-01-22T18:38:26.828Z,100208.81
2023-01-22T18:41:31.324Z,100212.50
2023-01-22T18:44:36.615Z,100215.69
2023-01-22T18:47:40.399Z,100204.25
2023-01-22T18:50:44.775Z,100211.09
2023-01-22T18:53:48.564Z,100208.22
2023-01-22T18:56:52.321Z,100213.28
2023-01-22T18:59:57.552Z,100220.31
2023-01-22T19:03:01.468Z,100227.03
2023-01-22T19:06:13.515Z,100228.88
2023-01-22T19:09:17.630Z,100240.25
2023-01-22T19:12:21.819Z,100244.13
2023-01-22T19:15:27.490Z,100243.03
2023-01-22T19:18:31.229Z,100243.59
2023-01-22T19:21:35.133Z,100245.81
2023-01-22T19:24:38.843Z,100246.38
2023-01-22T19:27:42.582Z,100243.78
2023-01-22T19:30:47.823Z,100240.19
2023-01-22T19:33:53.210Z,100230.91
2023-01-22T19:37:00.620Z,100228.50
2023-01-22T19:40:04.919Z,100228.81
2023-01-22T19:43:09.329Z,100228.75
2023-01-22T19:46:16.927Z,100230.84
2023-01-22T19:49:20.744Z,100228.00
2023-01-22T19:52:24.490Z,100230.84
2023-01-22T19:55:29.878Z,100237.22
2023-01-22T19:58:33.662Z,100239.28
2023-01-22T20:01:39.921Z,100236.72
2023-01-22T20:04:43.728Z,100242.47
2023-01-22T20:07:47.561Z,100241.25
2023-01-22T20:10:59.723Z,100232.38
2023-01-22T20:14:03.892Z,100242.97
2023-01-22T20:17:09.091Z,100238.31
2023-01-22T20:20:13.670Z,100249.41
2023-01-22T20:23:17.364Z,100248.81
2023-01-22T20:26:22.417Z,100253.69
2023-01-22T20:29:26.156Z,100248.31
2023-01-22T20:32:31.460Z,100259.28
2023-01-22T20:35:35.181Z,100264.19
2023-01-22T20:38:39.432Z,100252.34
2023-01-22T20:41:43.610Z,100262.47
2023-01-22T20:44:47.631Z,100261.94
2023-01-22T20:47:52.829Z,100260.63
2023-01-22T20:50:56.521Z,100256.56
2023-01-22T20:54:00.570Z,100264.75
2023-01-22T20:57:04.341Z,100264.94
2023-01-22T21:00:09.492Z,100262.09
2023-01-22T21:03:14.666Z,100270.34
2023-01-22T21:06:20.560Z,100267.78
2023-01-22T21:09:24.231Z,100274.25
2023-01-22T21:12:28.798Z,100271.06
2023-01-22T21:15:33.753Z,100264.59
2023-01-22T21:18:41.727Z,100274.28
2023-01-22T21:21:45.574Z,100273.88
2023-01-22T21:24:49.281Z,100271.50
2023-01-22T21:27:52.963Z,100274.41
2023-01-22T21:30:56.778Z,100279.53
2023-01-22T21:34:04.304Z,100277.66
2023-01-22T21:37:08.062Z,100279.72
2023-01-22T21:40:13.932Z,100283.44
2023-01-22T21:43:35.214Z,100281.81
2023-01-22T21:46:42.254Z,100288.78
2023-01-22T21:49:50.119Z,100287.38
2023-01-22T21:52:55.171Z,100283.88
2023-01-22T21:55:58.841Z,100286.56
2023-01-22T21:59:02.902Z,100280.28
2023-01-22T22:02:07.598Z,100281.88
2023-01-22T22:05:13.385Z,100274.28
2023-01-22T22:08:17.155Z,100271.81
2023-01-22T22:11:21.063Z,100273.72
2023-01-22T22:14:25.711Z,100268.81
2023-01-22T22:17:29.525Z,100269.31
2023-01-22T22:20:34.981Z,100270.97
2023-01-22T22:23:39.347Z,100273.81
2023-01-22T22:26:43.174Z,100263.19
2023-01-22T22:29:46.840Z,100267.84
2023-01-22T22:32:50.700Z,100265.22
2023-01-22T22:35:55.931Z,100267.34
2023-01-22T22:39:01.198Z,100273.19
2023-01-22T22:42:05.033Z,100274.72
2023-01-22T22:45:09.903Z,100271.69
2023-01-22T22:48:13.567Z,100270.78
2023-01-22T22:51:20.987Z,100276.09
2023-01-22T22:54:24.743Z,100284.34
2023-01-22T22:57:28.562Z,100289.81
2023-01-22T23:00:32.303Z,100290.94
2023-01-22T23:03:37.769Z,100296.38
2023-01-22T23:06:45.453Z,100304.03
2023-01-22T23:09:49.161Z,100305.91
2023-01-22T23:12:52.932Z,100307.84
2023-01-22T23:16:01.012Z,100304.09
2023-01-22T23:19:06.753Z,100295.47
2023-01-22T23:22:12.012Z,100301.63
2023-01-22T23:25:15.732Z,100299.94
2023-01-22T23:28:19.400Z,100300.44
2023-01-22T23:31:23.328Z,100298.00
2023-01-22T23:34:27.071Z,100299.19
2023-01-22T23:37:32.215Z,100301.22
2023-01-22T23:40:35.914Z,100304.34
2023-01-22T23:43:39.658Z,100307.16
2023-01-22T23:46:43.705Z,100314.59
2023-01-22T23:49:47.317Z,100315.72
2023-01-22T23:52:52.305Z,100311.94
2023-01-22T23:55:59.667Z,100317.09
2023-01-22T23:59:03.172Z,100315.91
